Time;durP1;ratioP1;P1;durP2;ratioP2;P2;SDS_P1;SDS_P2;PMS_P1;PMS_P2;Temp;Humidity;BMP_temperature;BMP_pressure;BME280_temperature;BME280_humidity;BME280_pressure;Samples;Min_cycle;Max_cycle;Signal;HPM_P1;HPM_P2
2023/12/28 00:04:43;;;;;;;0.00;0.00;;;;;;;5.30;74.02;100641.69;15682715;28;20128;-52
2023/12/28 00:12:19;;;;;;;0.00;0.00;;;;;;;4.92;76.03;100604.41;15680898;28;20052;-51
2023/12/28 00:19:53;;;;;;;0.00;0.00;;;;;;;5.04;75.74;100597.69;15662622;28;20048;-54
2023/12/28 00:27:27;;;;;;;0.00;0.00;;;;;;;5.03;75.62;100590.69;15679984;28;20056;-51
2023/12/28 00:35:01;;;;;;;0.00;0.00;;;;;;;5.01;75.58;100579.41;15681001;28;20053;-52
2023/12/28 00:42:40;;;;;;;0.00;0.00;;;;;;;5.43;74.10;100579.88;15654697;28;20391;-54
2023/12/28 00:50:15;;;;;;;1.55;1.13;;;;;;;5.62;72.57;100598.81;15648178;28;20426;-52
2023/12/28 00:57:50;;;;;;;0.47;0.45;;;;;;;5.77;71.98;100580.19;15660063;28;20567;-54
2023/12/28 01:05:25;;;;;;;0.32;0.32;;;;;;;5.80;71.35;100595.81;15659916;28;20127;-49
2023/12/28 01:13:00;;;;;;;0.00;0.00;;;;;;;6.01;70.92;100581.78;15659354;28;20048;-52
2023/12/28 01:20:34;;;;;;;0.10;0.10;;;;;;;5.65;71.69;100605.63;15636393;28;20466;-52
2023/12/28 01:28:09;;;;;;;0.00;0.00;;;;;;;5.73;71.52;100594.06;15620423;28;20232;-46
2023/12/28 01:35:42;;;;;;;0.00;0.00;;;;;;;5.78;71.06;100600.53;15659150;28;20041;-49
2023/12/28 01:43:17;;;;;;;;;;;;;;;5.88;70.17;100589.59;15658458;28;20088;-46
2023/12/28 01:50:50;;;;;;;0.00;0.00;;;;;;;5.53;70.38;100557.31;15668115;28;20126;-52
2023/12/28 01:58:27;;;;;;;0.25;0.25;;;;;;;5.36;68.60;100489.28;15657832;28;20091;-51
2023/12/28 02:06:02;;;;;;;1.65;1.55;;;;;;;5.78;68.09;100531.28;15657514;28;20039;-52
2023/12/28 02:13:37;;;;;;;0.28;0.20;;;;;;;6.17;65.98;100567.47;15640835;28;20057;-52
2023/12/28 02:21:13;;;;;;;0.38;0.22;;;;;;;6.37;64.46;100579.19;15673887;28;20117;-50
2023/12/28 02:28:48;;;;;;;5.57;0.43;;;;;;;6.76;62.07;100575.34;15669500;28;20156;-51
2023/12/28 02:36:25;;;;;;;0.00;0.00;;;;;;;7.03;60.75;100572.91;15685563;28;20434;-52
2023/12/28 02:44:00;;;;;;;0.00;0.00;;;;;;;7.28;59.66;100578.69;15667974;28;20167;-50
2023/12/28 02:51:35;;;;;;;0.20;0.20;;;;;;;7.65;58.57;100585.56;15662583;28;20077;-50
2023/12/28 02:59:11;;;;;;;0.00;0.00;;;;;;;7.72;57.47;100550.88;15651850;28;20296;-50
2023/12/28 03:06:47;;;;;;;0.00;0.00;;;;;;;7.80;57.43;100572.91;15648276;28;20135;-49
2023/12/28 03:14:28;;;;;;;0.00;0.00;;;;;;;7.92;55.96;100565.97;15649766;28;20079;-53
2023/12/28 03:22:02;;;;;;;0.28;0.28;;;;;;;8.13;55.77;100569.59;15666549;28;20594;-50
2023/12/28 03:29:41;;;;;;;0.00;0.00;;;;;;;8.17;54.81;100562.84;15665260;28;20052;-53
2023/12/28 03:37:17;;;;;;;0.00;0.00;;;;;;;8.11;56.37;100576.97;15664916;28;20068;-53
2023/12/28 03:44:52;;;;;;;0.00;0.00;;;;;;;8.06;57.46;100584.75;15676382;28;20069;-52
2023/12/28 03:52:27;;;;;;;0.15;0.15;;;;;;;7.99;58.49;100573.22;15647564;28;20665;-53
2023/12/28 04:00:02;;;;;;;0.00;0.00;;;;;;;8.22;57.79;100588.97;15647410;28;20057;-56
2023/12/28 04:07:38;;;;;;;1.05;0.95;;;;;;;8.29;57.45;100595.97;15647456;28;20469;-56
2023/12/28 04:15:15;;;;;;;0.08;0.03;;;;;;;8.26;56.87;100584.88;15654922;28;20098;-55
2023/12/28 04:22:48;;;;;;;0.00;0.00;;;;;;;8.29;56.54;100603.19;15661982;28;20068;-56
2023/12/28 04:30:23;;;;;;;;;;;;;;;8.48;55.79;100597.13;15663983;28;20131;-53
2023/12/28 04:37:57;;;;;;;0.00;0.00;;;;;;;8.60;55.44;100605.41;15664276;28;20015;-54
2023/12/28 04:45:32;;;;;;;;;;;;;;;8.49;56.05;100596.13;15653302;28;20041;-52
2023/12/28 04:53:05;;;;;;;0.00;0.00;;;;;;;8.79;55.21;100611.84;15660023;28;19928;-53
2023/12/28 05:00:41;;;;;;;0.43;0.25;;;;;;;8.48;56.56;100620.38;15660110;28;20259;-53
2023/12/28 05:08:15;;;;;;;0.00;0.00;;;;;;;8.65;55.91;100627.84;15660384;28;20048;-53
2023/12/28 05:15:50;;;;;;;0.00;0.00;;;;;;;8.81;56.77;100636.53;15659606;28;20051;-55
2023/12/28 05:23:23;;;;;;;0.00;0.00;;;;;;;8.94;56.19;100639.28;15677170;28;20052;-52
2023/12/28 05:30:59;;;;;;;0.00;0.00;;;;;;;8.79;57.18;100643.97;15658401;28;20075;-52
2023/12/28 05:38:33;;;;;;;0.00;0.00;;;;;;;8.72;57.93;100667.19;15676770;28;20068;-50
2023/12/28 05:46:08;;;;;;;0.00;0.00;;;;;;;8.79;58.23;100679.59;15652928;28;20116;-51
2023/12/28 05:53:41;;;;;;;0.00;0.00;;;;;;;8.54;59.71;100687.31;15675913;28;20051;-50
2023/12/28 06:01:16;;;;;;;;;;;;;;;8.47;60.13;100667.69;15675699;28;20452;-53
2023/12/28 06:08:51;;;;;;;0.00;0.00;;;;;;;8.28;61.51;100703.16;15676113;28;20377;-52
2023/12/28 06:16:26;;;;;;;0.00;0.00;;;;;;;8.65;60.63;100693.94;15674896;28;20037;-51
2023/12/28 06:24:00;;;;;;;0.00;0.00;;;;;;;8.58;60.55;100709.97;15675600;28;20045;-51
2023/12/28 06:31:36;;;;;;;0.05;0.05;;;;;;;8.60;61.50;100707.06;15675354;28;20448;-51
2023/12/28 06:39:09;;;;;;;0.00;0.00;;;;;;;8.65;61.47;100693.94;15675822;28;20495;-48
2023/12/28 06:46:44;;;;;;;;;;;;;;;8.42;62.57;100707.59;15651688;28;20076;-51
2023/12/28 06:54:17;;;;;;;0.00;0.00;;;;;;;8.44;62.81;100708.25;15659494;28;19951;-50
2023/12/28 07:01:54;;;;;;;0.00;0.00;;;;;;;8.61;62.51;100711.41;15657958;28;20056;-48
2023/12/28 07:09:27;;;;;;;0.03;0.03;;;;;;;8.34;64.46;100718.41;15664563;28;20490;-48
2023/12/28 07:17:02;;;;;;;0.00;0.00;;;;;;;8.54;64.35;100732.78;15649827;28;20045;-47
2023/12/28 07:24:36;;;;;;;0.00;0.00;;;;;;;8.54;65.73;100743.47;15634333;28;20064;-53
2023/12/28 07:32:11;;;;;;;0.00;0.00;;;;;;;8.57;65.88;100747.59;15659668;28;20536;-48
2023/12/28 07:39:45;;;;;;;0.00;0.00;;;;;;;8.59;66.18;100735.69;15665033;28;20124;-52
2023/12/28 07:47:20;;;;;;;0.20;0.20;;;;;;;8.69;66.47;100770.09;15664001;28;20578;-51
2023/12/28 07:54:53;;;;;;;0.03;0.03;;;;;;;8.79;65.94;100775.94;15663622;28;20053;-49
2023/12/28 08:02:28;;;;;;;;;;;;;;;8.81;65.86;100787.28;15654274;28;20049;-50
2023/12/28 08:10:02;;;;;;;0.00;0.00;;;;;;;8.60;66.10;100782.00;15680439;28;20291;-51
2023/12/28 08:17:37;;;;;;;0.05;0.05;;;;;;;8.57;65.35;100801.94;15680783;28;20409;-49
2023/12/28 08:25:11;;;;;;;0.00;0.00;;;;;;;8.83;64.04;100805.81;15680927;28;20437;-48
2023/12/28 08:32:45;;;;;;;;;;;;;;;8.58;64.70;100800.94;15680858;28;20049;-50
2023/12/28 08:40:22;;;;;;;0.00;0.00;;;;;;;8.68;64.70;100800.56;15680551;28;20570;-53
2023/12/28 08:47:57;;;;;;;;;;;;;;;8.89;63.92;100805.00;15656352;28;20049;-47
2023/12/28 08:55:30;;;;;;;0.00;0.00;;;;;;;8.92;63.94;100818.00;15639226;28;19928;-52
2023/12/28 09:03:05;;;;;;;;;;;;;;;8.63;64.84;100833.28;15676308;28;20486;-54
2023/12/28 09:10:43;;;;;;;0.00;0.00;;;;;;;8.83;64.85;100828.03;15680340;28;19921;-50
2023/12/28 09:18:18;;;;;;;0.93;0.63;;;;;;;8.76;64.86;100839.72;15676795;28;20124;-54
2023/12/28 09:25:52;;;;;;;0.00;0.00;;;;;;;8.63;65.58;100833.28;15675302;28;20106;-55
2023/12/28 09:33:26;;;;;;;0.00;0.00;;;;;;;8.66;65.57;100840.88;15675187;28;20056;-57
2023/12/28 09:41:10;;;;;;;0.00;0.00;;;;;;;8.95;64.99;100828.31;15671582;28;20041;-55
2023/12/28 09:48:46;;;;;;;0.10;0.10;;;;;;;8.67;65.97;100829.19;15654509;28;20056;-49
2023/12/28 09:56:20;;;;;;;0.00;0.00;;;;;;;8.84;66.14;100823.50;15659754;28;20456;-52
2023/12/28 10:03:56;;;;;;;0.00;0.00;;;;;;;8.69;66.73;100812.94;15672594;28;20064;-49
2023/12/28 10:11:30;;;;;;;0.00;0.00;;;;;;;8.83;66.33;100813.84;15671647;28;20462;-54
2023/12/28 10:19:05;;;;;;;0.00;0.00;;;;;;;8.58;67.25;100808.09;15678813;28;20107;-53
2023/12/28 10:26:40;;;;;;;0.00;0.00;;;;;;;9.25;65.43;100818.16;15668295;28;20068;-51
2023/12/28 10:34:14;;;;;;;0.00;0.00;;;;;;;10.02;62.74;100808.88;15675750;28;20528;-53
2023/12/28 10:41:50;;;;;;;1.15;0.45;;;;;;;10.11;62.13;100813.00;15638470;28;20048;-54
2023/12/28 10:49:27;;;;;;;0.32;0.32;;;;;;;10.36;61.79;100813.28;15685540;28;20040;-52
2023/12/28 10:57:07;;;;;;;0.08;0.08;;;;;;;10.48;61.03;100803.53;15684767;28;20049;-55
2023/12/28 11:04:49;;;;;;;0.00;0.00;;;;;;;10.88;60.20;100808.84;15651952;28;20065;-52
2023/12/28 11:12:23;;;;;;;0.00;0.00;;;;;;;11.42;57.90;100793.34;15675621;28;20037;-51
2023/12/28 11:20:00;;;;;;;0.00;0.00;;;;;;;11.59;57.84;100796.38;15681954;28;20124;-48
2023/12/28 11:27:37;;;;;;;0.25;0.20;;;;;;;11.62;57.14;100794.09;15680786;28;20061;-49
2023/12/28 11:35:14;;;;;;;0.10;0.10;;;;;;;10.38;60.81;100787.03;15682459;28;20056;-53
2023/12/28 11:42:51;;;;;;;0.00;0.00;;;;;;;10.43;60.51;100775.69;15665327;28;20051;-52
2023/12/28 11:50:29;;;;;;;0.75;0.20;;;;;;;11.26;58.91;100783.09;15675994;28;20532;-51
2023/12/28 11:58:03;;;;;;;0.00;0.00;;;;;;;11.93;56.67;100752.13;15682462;28;20128;-54
2023/12/28 12:05:38;;;;;;;0.00;0.00;;;;;;;12.40;54.62;100728.31;15664319;28;20114;-52
2023/12/28 12:13:12;;;;;;;0.17;0.10;;;;;;;11.55;57.52;100727.94;15681533;28;20060;-54
2023/12/28 12:20:48;;;;;;;0.45;0.30;;;;;;;12.37;55.69;100729.59;15681416;28;20053;-51
2023/12/28 12:28:21;;;;;;;0.00;0.00;;;;;;;12.94;54.03;100732.88;15680615;28;20045;-52
2023/12/28 12:35:57;;;;;;;0.57;0.55;;;;;;;12.81;53.95;100730.34;15672089;28;20042;-51
2023/12/28 12:43:31;;;;;;;0.10;0.10;;;;;;;12.37;55.44;100728.78;15599457;28;20490;-49
2023/12/28 12:51:06;;;;;;;0.00;0.00;;;;;;;12.19;55.52;100725.00;15675961;28;20049;-50
2023/12/28 12:58:39;;;;;;;0.00;0.00;;;;;;;12.63;54.17;100731.16;15627649;28;20061;-47
2023/12/28 13:06:15;;;;;;;0.63;0.60;;;;;;;11.38;57.63;100728.47;15644638;28;20052;-51
2023/12/28 13:13:48;;;;;;;0.28;0.28;;;;;;;11.32;58.32;100737.38;15659952;28;20501;-50
2023/12/28 13:21:25;;;;;;;0.28;0.20;;;;;;;10.66;60.58;100738.47;15676511;28;20540;-50
2023/12/28 13:28:58;;;;;;;0.15;0.15;;;;;;;10.53;61.35;100724.25;15660014;28;20037;-47
2023/12/28 13:36:34;;;;;;;0.00;0.00;;;;;;;10.58;61.01;100721.78;15677558;28;20048;-50
2023/12/28 13:44:12;;;;;;;0.00;0.00;;;;;;;10.44;61.07;100724.50;15661696;28;20056;-47
2023/12/28 13:51:47;;;;;;;0.00;0.00;;;;;;;10.20;62.33;100730.47;15662356;28;20053;-52
2023/12/28 13:59:20;;;;;;;3.85;1.65;;;;;;;10.44;61.52;100724.50;15632787;28;20049;-50
2023/12/28 14:06:55;;;;;;;;;;;;;;;10.23;62.71;100738.94;15677335;28;20045;-51
2023/12/28 14:14:31;;;;;;;0.00;0.00;;;;;;;10.30;62.15;100740.81;15688847;28;20404;-49
2023/12/28 14:22:07;;;;;;;0.30;0.22;;;;;;;10.22;62.30;100745.34;15693859;28;20482;-49
2023/12/28 14:29:41;;;;;;;0.00;0.00;;;;;;;10.02;63.13;100735.66;15691410;28;20037;-52
2023/12/28 14:37:17;;;;;;;0.00;0.00;;;;;;;9.82;63.37;100762.47;15662321;28;20041;-52
2023/12/28 14:44:51;;;;;;;0.00;0.00;;;;;;;9.70;64.15;100764.94;15687578;28;20049;-54
2023/12/28 14:52:26;;;;;;;0.00;0.00;;;;;;;9.78;64.09;100755.84;15673293;28;20044;-49
2023/12/28 14:59:59;;;;;;;0.17;0.15;;;;;;;9.95;63.64;100754.44;15684594;28;20064;-51
2023/12/28 15:07:35;;;;;;;0.00;0.00;;;;;;;9.83;63.81;100756.06;15664282;28;20044;-51
2023/12/28 15:15:12;;;;;;;0.13;0.13;;;;;;;9.60;64.48;100743.84;15654124;28;20055;-56
2023/12/28 15:22:47;;;;;;;0.13;0.05;;;;;;;9.32;65.60;100727.13;15673286;28;20128;-52
2023/12/28 15:30:21;;;;;;;0.00;0.00;;;;;;;9.29;65.82;100723.00;15674994;28;20128;-52
2023/12/28 15:37:57;;;;;;;0.00;0.00;;;;;;;9.15;66.19;100716.78;15682840;28;20033;-52
2023/12/28 15:45:31;;;;;;;0.13;0.13;;;;;;;8.93;67.06;100725.97;15676276;28;20049;-49
2023/12/28 15:53:06;;;;;;;0.00;0.00;;;;;;;8.84;67.51;100719.94;15681420;28;20033;-49
2023/12/28 16:00:40;;;;;;;0.00;0.00;;;;;;;8.89;67.52;100722.03;15681284;28;20045;-47
2023/12/28 16:08:15;;;;;;;0.00;0.00;;;;;;;8.91;67.39;100722.66;15680114;28;20037;-48
2023/12/28 16:15:49;;;;;;;0.03;0.03;;;;;;;8.62;68.31;100713.88;15681340;28;20103;-48
2023/12/28 16:23:25;;;;;;;0.00;0.00;;;;;;;8.71;68.07;100716.38;15681004;28;20049;-48
2023/12/28 16:30:59;;;;;;;0.10;0.10;;;;;;;8.84;67.50;100708.41;15666164;28;20045;-49
2023/12/28 16:38:34;;;;;;;0.00;0.00;;;;;;;8.81;67.59;100723.03;15662584;28;20040;-50
2023/12/28 16:46:08;;;;;;;0.00;0.00;;;;;;;8.89;67.20;100720.19;15675767;28;20052;-51
2023/12/28 16:53:44;;;;;;;0.17;0.17;;;;;;;8.88;67.07;100715.03;15681051;28;20045;-47
2023/12/28 17:01:17;;;;;;;0.00;0.00;;;;;;;8.92;66.89;100711.75;15660682;28;20440;-48
2023/12/28 17:08:53;;;;;;;0.00;0.00;;;;;;;8.88;66.51;100707.00;15665663;28;20429;-51
2023/12/28 17:16:27;;;;;;;0.00;0.00;;;;;;;8.97;65.85;100704.97;15669417;28;20041;-47
2023/12/28 17:24:04;;;;;;;0.05;0.05;;;;;;;9.02;65.57;100698.00;15638808;28;20098;-47
2023/12/28 17:31:38;;;;;;;0.00;0.00;;;;;;;8.83;65.89;100688.03;15664636;28;20029;-47
2023/12/28 17:39:14;;;;;;;0.00;0.00;;;;;;;8.95;65.55;100697.13;15682548;28;20130;-54
2023/12/28 17:46:49;;;;;;;0.32;0.20;;;;;;;8.93;65.13;100696.50;15672763;28;20047;-49
2023/12/28 17:54:25;;;;;;;0.20;0.13;;;;;;;8.83;65.10;100677.34;15662607;28;20075;-47
2023/12/28 18:02:01;;;;;;;0.00;0.00;;;;;;;8.89;65.13;100700.63;15679880;28;20095;-51
2023/12/28 18:09:40;;;;;;;;;;;;;;;8.93;65.02;100696.50;15639609;28;20091;-49
2023/12/28 18:17:16;;;;;;;0.00;0.00;;;;;;;8.80;65.07;100688.44;15678913;28;19921;-47
2023/12/28 18:24:50;;;;;;;0.00;0.00;;;;;;;8.76;65.21;100692.53;15642430;28;20103;-49
2023/12/28 18:32:26;;;;;;;0.00;0.00;;;;;;;8.77;65.09;100683.50;15652425;28;20137;-50
2023/12/28 18:40:00;;;;;;;0.00;0.00;;;;;;;8.90;64.89;100699.59;15664690;22;20053;-52
2023/12/28 18:47:35;;;;;;;0.00;0.00;;;;;;;8.89;64.87;100695.25;15660699;28;20045;-52
2023/12/28 18:55:10;;;;;;;0.00;0.00;;;;;;;8.82;64.76;100694.44;15668227;28;20052;-54
2023/12/28 19:02:43;;;;;;;0.00;0.00;;;;;;;8.73;65.41;100703.66;15671620;28;20057;-58
2023/12/28 19:10:19;;;;;;;0.00;0.00;;;;;;;8.77;65.47;100688.84;15680175;28;20045;-50
2023/12/28 19:17:53;;;;;;;0.65;0.65;;;;;;;8.60;65.59;100667.78;15660919;28;20053;-56
2023/12/28 19:25:29;;;;;;;0.00;0.00;;;;;;;8.64;65.72;100663.69;15675612;28;20055;-53
2023/12/28 19:33:02;;;;;;;0.00;0.00;;;;;;;8.53;66.18;100660.72;15668374;28;20662;-50
2023/12/28 19:40:37;;;;;;;0.00;0.00;;;;;;;8.43;66.15;100658.41;15679699;28;20135;-56
2023/12/28 19:48:11;;;;;;;0.00;0.00;;;;;;;8.53;66.18;100650.03;15654556;28;20044;-51
2023/12/28 19:55:47;;;;;;;0.00;0.00;;;;;;;8.44;66.43;100665.44;15678328;28;20064;-53
2023/12/28 20:03:20;;;;;;;4.28;0.32;;;;;;;8.22;66.83;100664.66;15677295;28;20068;-54
2023/12/28 20:10:55;;;;;;;0.13;0.13;;;;;;;8.08;67.60;100653.06;15641791;28;20053;-56
2023/12/28 20:18:31;;;;;;;0.00;0.00;;;;;;;7.90;67.99;100661.56;15676294;28;20156;-52
2023/12/28 20:26:07;;;;;;;7.47;1.17;;;;;;;8.04;67.48;100662.50;15673357;28;20460;-51
2023/12/28 20:33:41;;;;;;;0.00;0.00;;;;;;;7.99;68.20;100658.75;15675008;28;20045;-56
2023/12/28 20:41:18;;;;;;;0.00;0.00;;;;;;;7.87;68.01;100667.28;15656292;28;20053;-54
2023/12/28 20:48:51;;;;;;;0.00;0.00;;;;;;;8.04;67.61;100661.66;15648594;28;20099;-50
2023/12/28 20:56:27;;;;;;;0.00;0.00;;;;;;;7.78;68.55;100656.94;15672722;28;20111;-54
2023/12/28 21:04:01;;;;;;;0.00;0.00;;;;;;;7.93;67.98;100630.97;15671804;28;20083;-53
2023/12/28 21:11:36;;;;;;;0.00;0.00;;;;;;;7.55;69.69;100628.59;15655168;28;20409;-51
2023/12/28 21:19:11;;;;;;;0.00;0.00;;;;;;;7.31;70.46;100631.69;15672280;28;20417;-54
2023/12/28 21:26:47;;;;;;;0.00;0.00;;;;;;;7.41;70.02;100602.81;15671384;28;20155;-53
2023/12/28 21:34:20;;;;;;;0.00;0.00;;;;;;;7.61;69.46;100609.16;15671268;28;20136;-48
2023/12/28 21:41:56;;;;;;;0.00;0.00;;;;;;;7.54;70.12;100607.44;15670599;28;20049;-54
2023/12/28 21:49:29;;;;;;;0.00;0.00;;;;;;;7.57;70.17;100597.19;15667066;28;20041;-52
2023/12/28 21:57:04;;;;;;;0.10;0.10;;;;;;;7.62;69.79;100597.44;15669773;28;20045;-54
2023/12/28 22:04:37;;;;;;;0.10;0.10;;;;;;;7.82;68.96;100602.91;15670147;28;20049;-50
2023/12/28 22:12:13;;;;;;;0.00;0.00;;;;;;;7.86;68.98;100590.81;15668082;28;20041;-52
2023/12/28 22:19:46;;;;;;;0.00;0.00;;;;;;;7.74;69.39;100589.72;15665401;28;20041;-53
2023/12/28 22:27:22;;;;;;;0.15;0.15;;;;;;;7.84;68.86;100600.91;15646570;28;20044;-53
2023/12/28 22:34:57;;;;;;;0.22;0.17;;;;;;;7.96;68.65;100609.16;15668594;28;20572;-51
2023/12/28 22:42:32;;;;;;;0.10;0.10;;;;;;;7.78;69.20;100601.66;15678811;28;20265;-52
2023/12/28 22:50:07;;;;;;;0.00;0.00;;;;;;;7.82;68.98;100584.22;15673390;28;20071;-54
2023/12/28 22:57:42;;;;;;;0.00;0.00;;;;;;;7.72;69.18;100582.91;15662323;28;20202;-51
2023/12/28 23:05:16;;;;;;;0.43;0.43;;;;;;;7.80;69.09;100572.91;15678116;28;20041;-56
2023/12/28 23:12:50;;;;;;;;;;;;;;;7.68;69.23;100569.94;15673749;28;20065;-48
2023/12/28 23:20:27;;;;;;;0.03;0.03;;;;;;;7.71;69.39;100570.59;15649372;28;19921;-52
2023/12/28 23:28:01;;;;;;;0.00;0.00;;;;;;;7.76;69.39;100562.81;15658974;28;20470;-53
2023/12/28 23:35:35;;;;;;;0.00;0.00;;;;;;;7.94;68.91;100539.06;15676246;28;20079;-50
2023/12/28 23:43:10;;;;;;;0.00;0.00;;;;;;;7.77;69.73;100525.19;15672049;28;20075;-50
2023/12/28 23:50:44;;;;;;;0.00;0.00;;;;;;;7.74;69.78;100517.59;15645737;28;20154;-52
2023/12/28 23:58:19;;;;;;;0.75;0.45;;;;;;;7.84;69.35;100509.22;15671968;28;20057;-53
